createdAt,value
2022-09-25T00:00:45.203Z,4.53
2022-09-25T00:03:13.416Z,4.50
2022-09-25T00:05:42.453Z,4.20
2022-09-25T00:08:10.214Z,4.38
2022-09-25T00:10:51.361Z,4.50
2022-09-25T00:13:20.120Z,4.35
2022-09-25T00:15:49.781Z,4.10
2022-09-25T00:18:37.754Z,4.18
2022-09-25T00:21:05.603Z,4.68
2022-09-25T00:23:33.787Z,4.55
2022-09-25T00:26:02.211Z,4.30
2022-09-25T00:28:31.975Z,3.85
2022-09-25T00:30:58.788Z,4.35
2022-09-25T00:33:25.446Z,4.07
2022-09-25T00:35:52.096Z,3.80
2022-09-25T00:38:18.753Z,3.95
2022-09-25T00:40:45.608Z,3.85
2022-09-25T00:43:33.251Z,4.20
2022-09-25T00:46:03.063Z,3.80
2022-09-25T00:48:30.893Z,4.00
2022-09-25T00:50:59.860Z,3.95
2022-09-25T00:53:34.437Z,4.00
2022-09-25T00:56:03.467Z,4.03
2022-09-25T00:58:33.118Z,4.50
2022-09-25T01:01:00.386Z,3.97
2022-09-25T01:03:27.950Z,3.85
2022-09-25T01:05:55.575Z,4.03
2022-09-25T01:08:26.343Z,4.00
2022-09-25T01:10:53.059Z,4.13
2022-09-25T01:13:20.444Z,4.10
2022-09-25T01:16:08.281Z,4.10
2022-09-25T01:18:34.856Z,3.97
2022-09-25T01:21:36.621Z,3.60
2022-09-25T01:24:30.694Z,4.15
2022-09-25T01:27:22.217Z,4.05
2022-09-25T01:30:12.022Z,3.90
2022-09-25T01:33:02.205Z,4.07
2022-09-25T01:35:40.614Z,3.83
2022-09-25T01:38:15.319Z,4.20
2022-09-25T01:40:52.669Z,4.20
2022-09-25T01:43:28.621Z,4.32
2022-09-25T01:46:03.210Z,3.70
2022-09-25T01:48:33.856Z,4.55
2022-09-25T01:51:10.621Z,4.15
2022-09-25T01:53:48.016Z,4.30
2022-09-25T01:56:22.262Z,4.20
2022-09-25T01:58:55.658Z,4.15
2022-09-25T02:01:31.643Z,3.83
2022-09-25T02:04:16.594Z,4.13
2022-09-25T02:06:47.404Z,3.97
2022-09-25T02:09:21.383Z,3.88
2022-09-25T02:11:54.960Z,4.80
2022-09-25T02:14:32.015Z,4.10
2022-09-25T02:16:59.145Z,4.10
2022-09-25T02:19:45.041Z,4.50
2022-09-25T02:22:20.900Z,4.28
2022-09-25T02:24:55.250Z,3.95
2022-09-25T02:27:27.701Z,4.45
2022-09-25T02:29:56.006Z,4.22
2022-09-25T02:32:29.896Z,4.57
2022-09-25T02:34:57.865Z,4.93
2022-09-25T02:37:24.531Z,4.15
2022-09-25T02:39:56.051Z,4.32
2022-09-25T02:42:56.339Z,4.10
2022-09-25T02:45:34.674Z,4.32
2022-09-25T02:48:28.596Z,4.10
2022-09-25T02:51:15.408Z,4.20
2022-09-25T02:53:48.157Z,4.28
2022-09-25T02:56:25.547Z,4.43
2022-09-25T02:58:59.566Z,3.80
2022-09-25T03:01:29.258Z,4.40
2022-09-25T03:03:59.284Z,4.45
2022-09-25T03:06:26.583Z,4.40
2022-09-25T03:08:56.945Z,4.10
2022-09-25T03:11:28.768Z,4.78
2022-09-25T03:14:01.419Z,4.03
2022-09-25T03:16:34.600Z,4.10
2022-09-25T03:19:02.912Z,4.43
2022-09-25T03:21:29.589Z,4.22
2022-09-25T03:23:59.019Z,3.72
2022-09-25T03:26:27.418Z,4.05
2022-09-25T03:28:54.585Z,4.05
2022-09-25T03:31:21.738Z,4.50
2022-09-25T03:33:49.017Z,4.18
2022-09-25T03:36:21.563Z,4.03
2022-09-25T03:38:52.056Z,4.47
2022-09-25T03:41:21.533Z,4.57
2022-09-25T03:43:52.021Z,4.15
2022-09-25T03:46:21.701Z,4.20
2022-09-25T03:48:48.791Z,4.22
2022-09-25T03:51:15.444Z,4.00
2022-09-25T03:53:42.192Z,4.57
2022-09-25T03:56:12.528Z,3.95
2022-09-25T03:58:39.752Z,4.40
2022-09-25T04:01:07.049Z,3.63
2022-09-25T04:03:34.911Z,4.15
2022-09-25T04:06:04.952Z,3.88
2022-09-25T04:08:33.334Z,4.00
2022-09-25T04:11:00.807Z,4.20
2022-09-25T04:13:30.762Z,4.10
2022-09-25T04:15:58.731Z,4.30
2022-09-25T04:18:27.495Z,4.05
2022-09-25T04:20:54.151Z,4.15
2022-09-25T04:23:20.822Z,4.38
2022-09-25T04:25:47.391Z,4.20
2022-09-25T04:28:14.071Z,4.20
2022-09-25T04:30:40.654Z,3.80
2022-09-25T04:33:26.013Z,3.95
2022-09-25T04:35:52.594Z,4.30
2022-09-25T04:38:19.261Z,4.15
2022-09-25T04:40:48.984Z,3.80
2022-09-25T04:43:15.783Z,3.80
2022-09-25T04:45:42.433Z,3.83
2022-09-25T04:48:09.235Z,3.95
2022-09-25T04:50:36.214Z,3.80
2022-09-25T04:53:03.064Z,3.95
2022-09-25T04:55:29.733Z,4.30
2022-09-25T04:58:01.357Z,4.00
2022-09-25T05:00:31.541Z,4.00
2022-09-25T05:02:59.022Z,4.00
2022-09-25T05:05:28.255Z,4.20
2022-09-25T05:08:00.067Z,3.88
2022-09-25T05:10:30.237Z,3.90
2022-09-25T05:12:59.129Z,4.07
2022-09-25T05:15:28.441Z,4.22
2022-09-25T05:18:07.599Z,4.35
2022-09-25T05:20:37.180Z,4.25
2022-09-25T05:23:04.473Z,4.32
2022-09-25T05:25:32.205Z,4.18
2022-09-25T05:28:00.589Z,4.20
2022-09-25T05:30:29.869Z,3.70
2022-09-25T05:32:59.578Z,3.95
2022-09-25T05:35:31.542Z,4.20
2022-09-25T05:37:58.366Z,4.45
2022-09-25T05:40:25.634Z,4.15
2022-09-25T05:42:53.056Z,4.30
2022-09-25T05:45:21.563Z,4.55
2022-09-25T05:47:48.216Z,4.55
2022-09-25T05:50:16.595Z,4.07
2022-09-25T05:52:43.657Z,4.13
2022-09-25T05:55:11.095Z,4.10
2022-09-25T05:57:38.590Z,4.60
2022-09-25T06:00:10.251Z,4.10
2022-09-25T06:02:37.037Z,4.10
2022-09-25T06:05:03.947Z,4.10
2022-09-25T06:07:30.688Z,4.22
2022-09-25T06:09:57.343Z,4.50
2022-09-25T06:12:24.990Z,4.75
2022-09-25T06:14:52.700Z,4.60
2022-09-25T06:17:20.119Z,4.50
2022-09-25T06:19:47.321Z,4.10
2022-09-25T06:22:14.173Z,4.40
2022-09-25T06:24:41.206Z,4.32
2022-09-25T06:27:08.709Z,4.40
2022-09-25T06:29:35.977Z,4.97
2022-09-25T06:32:03.782Z,4.75
2022-09-25T06:34:30.395Z,4.30
2022-09-25T06:36:57.061Z,4.55
2022-09-25T06:39:23.660Z,4.88
2022-09-25T06:41:53.727Z,4.80
2022-09-25T06:44:22.068Z,4.40
2022-09-25T06:46:54.666Z,4.50
2022-09-25T06:49:22.063Z,4.55
2022-09-25T06:51:51.048Z,4.35
2022-09-25T06:54:18.066Z,4.70
2022-09-25T06:56:49.966Z,4.03
2022-09-25T06:59:17.021Z,4.85
2022-09-25T07:01:43.831Z,4.53
2022-09-25T07:04:10.684Z,4.60
2022-09-25T07:06:37.479Z,4.38
2022-09-25T07:09:04.425Z,4.90
2022-09-25T07:11:33.895Z,5.25
2022-09-25T07:14:00.617Z,5.00
2022-09-25T07:16:29.966Z,4.72
2022-09-25T07:19:03.458Z,4.95
2022-09-25T07:21:32.447Z,4.90
2022-09-25T07:23:59.540Z,4.75
2022-09-25T07:26:30.776Z,5.40
2022-09-25T07:29:04.548Z,4.78
2022-09-25T07:31:33.434Z,5.28
2022-09-25T07:34:03.059Z,5.40
2022-09-25T07:36:29.963Z,5.28
2022-09-25T07:38:56.590Z,5.20
2022-09-25T07:41:23.786Z,5.10
2022-09-25T07:44:17.732Z,5.30
2022-09-25T07:46:44.779Z,5.35
2022-09-25T07:49:12.512Z,5.18
2022-09-25T07:51:39.452Z,5.30
2022-09-25T07:54:06.300Z,4.60
2022-09-25T07:56:34.681Z,4.70
2022-09-25T07:59:01.835Z,4.80
2022-09-25T08:01:28.663Z,4.20
2022-09-25T08:03:55.364Z,4.80
2022-09-25T08:06:22.121Z,4.50
2022-09-25T08:08:48.745Z,4.43
2022-09-25T08:11:17.604Z,4.88
2022-09-25T08:13:45.226Z,4.68
2022-09-25T08:16:17.013Z,11.00
2022-09-25T08:18:46.450Z,12.35
2022-09-25T08:21:15.469Z,10.27
2022-09-25T08:23:47.781Z,8.15
2022-09-25T08:26:15.651Z,8.60
2022-09-25T08:28:42.436Z,8.45
2022-09-25T08:31:09.228Z,7.35
2022-09-25T08:33:36.570Z,7.40
2022-09-25T08:36:05.152Z,7.78
2022-09-25T08:38:34.934Z,5.82
2022-09-25T08:41:26.007Z,5.97
2022-09-25T08:44:05.310Z,5.85
2022-09-25T08:46:57.741Z,6.40
2022-09-25T08:49:28.507Z,6.00
2022-09-25T08:52:01.930Z,6.95
2022-09-25T08:54:31.904Z,6.03
2022-09-25T08:57:03.721Z,6.35
2022-09-25T08:59:40.654Z,6.30
2022-09-25T09:02:20.704Z,5.82
2022-09-25T09:04:47.317Z,5.18
2022-09-25T09:07:39.406Z,6.90
2022-09-25T09:10:24.608Z,6.22
2022-09-25T09:15:32.799Z,6.30
2022-09-25T09:18:04.490Z,6.22
2022-09-25T09:20:51.962Z,6.63
2022-09-25T09:23:21.763Z,6.50
2022-09-25T09:26:00.294Z,6.63
2022-09-25T09:28:55.053Z,6.47
2022-09-25T09:31:52.481Z,8.03
2022-09-25T09:35:06.259Z,6.78
2022-09-25T09:37:54.035Z,7.10
2022-09-25T09:40:26.261Z,8.13
2022-09-25T09:43:03.899Z,8.40
2022-09-25T09:45:36.264Z,7.80
2022-09-25T09:48:12.453Z,8.82
2022-09-25T09:50:52.162Z,7.85
2022-09-25T09:53:34.488Z,7.07
2022-09-25T09:56:10.240Z,7.22
2022-09-25T09:58:51.224Z,6.43
2022-09-25T10:01:40.169Z,6.47
2022-09-25T10:04:15.938Z,6.00
2022-09-25T10:09:15.817Z,6.00
2022-09-25T10:11:45.724Z,5.70
2022-09-25T10:14:21.344Z,4.90
2022-09-25T10:16:52.453Z,5.13
2022-09-25T10:19:22.549Z,5.18
2022-09-25T10:22:17.202Z,5.30
2022-09-25T10:25:05.309Z,5.30
2022-09-25T10:27:40.670Z,5.10
2022-09-25T10:30:10.191Z,5.25
2022-09-25T10:32:46.259Z,5.93
2022-09-25T10:35:22.037Z,5.57
2022-09-25T10:37:58.810Z,6.10
2022-09-25T10:40:31.792Z,5.93
2022-09-25T10:43:16.778Z,5.43
2022-09-25T10:45:44.592Z,5.88
2022-09-25T10:48:43.764Z,5.82
2022-09-25T10:51:11.798Z,6.93
2022-09-25T10:53:38.570Z,5.25
2022-09-25T10:56:14.253Z,4.95
2022-09-25T10:58:55.228Z,4.70
2022-09-25T11:01:32.640Z,4.88
2022-09-25T11:04:00.044Z,5.13
2022-09-25T11:06:33.423Z,5.05
2022-09-25T11:09:05.944Z,5.07
2022-09-25T11:11:32.671Z,6.50
2022-09-25T11:14:03.634Z,5.82
2022-09-25T11:16:50.590Z,5.88
2022-09-25T11:19:31.947Z,5.60
2022-09-25T11:22:26.078Z,5.75
2022-09-25T11:25:14.847Z,5.53
2022-09-25T11:28:06.164Z,4.75
2022-09-25T11:30:44.875Z,4.82
2022-09-25T11:33:32.578Z,4.90
2022-09-25T11:36:19.406Z,4.70
2022-09-25T11:39:14.383Z,4.70
2022-09-25T11:42:04.272Z,5.47
2022-09-25T11:44:57.608Z,5.47
2022-09-25T11:47:40.447Z,5.88
2022-09-25T11:50:16.047Z,5.97
2022-09-25T11:53:07.456Z,5.95
2022-09-25T11:55:50.674Z,6.05
2022-09-25T11:58:26.686Z,5.82
2022-09-25T12:01:07.138Z,6.10
2022-09-25T12:03:52.215Z,7.40
2022-09-25T12:06:25.271Z,6.85
2022-09-25T12:09:10.391Z,6.47
2022-09-25T12:11:49.392Z,6.65
2022-09-25T12:14:29.681Z,6.25
2022-09-25T12:17:05.326Z,6.07
2022-09-25T12:19:56.444Z,6.45
2022-09-25T12:22:26.317Z,5.05
2022-09-25T12:25:13.204Z,6.28
2022-09-25T12:28:19.360Z,5.00
2022-09-25T12:31:12.381Z,4.80
2022-09-25T12:33:48.565Z,4.80
2022-09-25T12:36:36.466Z,5.20
2022-09-25T12:39:33.240Z,4.85
2022-09-25T12:42:19.616Z,4.70
2022-09-25T12:45:22.186Z,4.72
2022-09-25T12:48:33.282Z,4.25
2022-09-25T12:51:17.293Z,4.88
2022-09-25T12:53:50.165Z,4.13
2022-09-25T12:56:32.329Z,5.45
2022-09-25T12:59:21.747Z,4.35
2022-09-25T13:01:57.480Z,4.70
2022-09-25T13:04:39.909Z,5.20
2022-09-25T13:07:25.027Z,5.57
2022-09-25T13:09:51.660Z,4.88
2022-09-25T13:12:37.192Z,5.32
2022-09-25T13:15:07.647Z,4.78
2022-09-25T13:17:35.501Z,4.97
2022-09-25T13:20:27.211Z,4.93
2022-09-25T13:23:16.104Z,4.80
2022-09-25T13:26:00.554Z,4.85
2022-09-25T13:28:57.334Z,4.93
2022-09-25T13:31:33.253Z,5.35
2022-09-25T13:34:13.759Z,5.10
2022-09-25T13:36:49.430Z,5.25
2022-09-25T13:39:54.619Z,5.03
2022-09-25T13:42:27.520Z,4.40
2022-09-25T13:45:00.279Z,4.72
2022-09-25T13:47:29.956Z,4.38
2022-09-25T13:50:11.569Z,5.20
2022-09-25T13:52:43.962Z,5.10
2022-09-25T13:55:13.396Z,4.90
2022-09-25T13:57:58.557Z,5.25
2022-09-25T14:03:42.781Z,18.02
2022-09-25T14:06:20.423Z,6.97
2022-09-25T14:08:49.416Z,4.68
2022-09-25T14:11:23.181Z,4.70
2022-09-25T14:13:56.640Z,4.32
2022-09-25T14:16:28.996Z,4.25
2022-09-25T14:18:58.145Z,4.38
2022-09-25T14:21:28.540Z,4.00
2022-09-25T14:23:57.775Z,3.55
2022-09-25T14:26:26.689Z,4.22
2022-09-25T14:28:55.506Z,3.53
2022-09-25T14:31:40.004Z,3.60
2022-09-25T14:34:29.971Z,3.92
2022-09-25T14:37:17.508Z,3.30
2022-09-25T14:40:11.738Z,3.88
2022-09-25T14:42:44.215Z,4.10
2022-09-25T14:45:29.337Z,3.40
2022-09-25T14:50:31.394Z,3.88
2022-09-25T14:53:02.154Z,3.35
2022-09-25T14:55:44.957Z,3.70
2022-09-25T14:58:16.273Z,3.78
2022-09-25T15:00:49.551Z,3.40
2022-09-25T15:03:20.076Z,3.40
2022-09-25T15:05:48.361Z,3.28
2022-09-25T15:08:44.187Z,3.60
2022-09-25T15:11:12.669Z,3.20
2022-09-25T15:13:39.560Z,3.17
2022-09-25T15:16:31.844Z,3.10
2022-09-25T15:19:00.723Z,3.10
2022-09-25T15:21:31.079Z,3.25
2022-09-25T15:24:14.209Z,3.65
2022-09-25T15:26:49.963Z,3.80
2022-09-25T15:29:26.016Z,2.97
2022-09-25T15:31:52.723Z,3.53
2022-09-25T15:34:30.239Z,3.33
2022-09-25T15:37:21.037Z,3.75
2022-09-25T15:39:48.211Z,3.70
2022-09-25T15:42:15.298Z,3.60
2022-09-25T15:44:42.531Z,3.67
2022-09-25T15:47:34.749Z,3.20
2022-09-25T15:50:03.528Z,3.38
2022-09-25T15:52:35.016Z,3.20
2022-09-25T15:55:06.630Z,2.80
2022-09-25T15:57:33.885Z,2.83
2022-09-25T16:00:27.834Z,3.10
2022-09-25T16:03:38.138Z,3.15
2022-09-25T16:06:05.229Z,3.30
2022-09-25T16:08:36.842Z,3.67
2022-09-25T16:11:24.375Z,3.40
2022-09-25T16:13:53.921Z,3.42
2022-09-25T16:16:31.779Z,3.22
2022-09-25T16:19:27.858Z,3.40
2022-09-25T16:21:55.163Z,3.72
2022-09-25T16:24:29.104Z,3.50
2022-09-25T16:27:05.151Z,3.67
2022-09-25T16:29:34.411Z,3.63
2022-09-25T16:32:05.565Z,3.45
2022-09-25T16:34:40.771Z,3.70
2022-09-25T16:37:20.263Z,3.70
2022-09-25T16:40:09.116Z,4.00
2022-09-25T16:42:42.390Z,3.70
2022-09-25T16:45:27.735Z,4.10
2022-09-25T16:47:55.005Z,3.47
2022-09-25T16:50:22.284Z,3.40
2022-09-25T16:52:49.653Z,2.80
2022-09-25T16:55:26.253Z,3.10
2022-09-25T16:57:54.234Z,3.00
2022-09-25T17:00:28.097Z,3.50
2022-09-25T17:02:55.149Z,3.88
2022-09-25T17:05:26.909Z,3.85
2022-09-25T17:08:00.401Z,3.90
2022-09-25T17:10:32.366Z,3.83
2022-09-25T17:13:01.579Z,4.30
2022-09-25T17:15:36.218Z,3.85
2022-09-25T17:18:08.011Z,3.95
2022-09-25T17:20:35.585Z,3.58
2022-09-25T17:23:02.237Z,3.65
2022-09-25T17:25:41.073Z,3.83
2022-09-25T17:28:09.291Z,4.32
2022-09-25T17:30:36.787Z,3.78
2022-09-25T17:33:06.292Z,4.00
2022-09-25T17:35:41.371Z,3.80
2022-09-25T17:38:08.278Z,4.00
2022-09-25T17:40:35.278Z,3.50
2022-09-25T17:43:02.838Z,3.30
2022-09-25T17:45:40.007Z,2.92
2022-09-25T17:48:06.851Z,3.10
2022-09-25T17:50:35.665Z,3.25
2022-09-25T17:53:03.898Z,3.33
2022-09-25T17:55:31.910Z,3.25
2022-09-25T17:57:58.768Z,3.55
2022-09-25T18:00:25.781Z,3.72
2022-09-25T18:02:52.481Z,3.80
2022-09-25T18:05:19.694Z,3.58
2022-09-25T18:07:46.431Z,3.50
2022-09-25T18:10:14.311Z,3.30
2022-09-25T18:12:41.475Z,3.75
2022-09-25T18:15:10.489Z,4.28
2022-09-25T18:17:37.169Z,3.80
2022-09-25T18:20:23.133Z,4.20
2022-09-25T18:22:49.762Z,4.43
2022-09-25T18:25:16.773Z,4.07
2022-09-25T18:27:44.092Z,4.18
2022-09-25T18:30:13.874Z,3.88
2022-09-25T18:32:40.532Z,3.28
2022-09-25T18:35:08.220Z,3.40
2022-09-25T18:37:35.089Z,3.50
2022-09-25T18:40:02.187Z,3.83
2022-09-25T18:42:28.886Z,3.85
2022-09-25T18:44:55.710Z,3.00
2022-09-25T18:47:22.353Z,3.22
2022-09-25T18:49:50.567Z,3.30
2022-09-25T18:52:17.375Z,3.17
2022-09-25T18:54:44.224Z,3.50
2022-09-25T18:57:12.565Z,3.42
2022-09-25T18:59:40.148Z,3.58
2022-09-25T19:02:16.250Z,3.47
2022-09-25T19:04:42.956Z,3.10
2022-09-25T19:07:09.597Z,3.42
2022-09-25T19:09:36.165Z,3.78
2022-09-25T19:12:03.831Z,4.05
2022-09-25T19:14:31.307Z,3.85
2022-09-25T19:16:57.981Z,3.92
2022-09-25T19:19:24.674Z,3.60
2022-09-25T19:21:51.386Z,3.67
2022-09-25T19:24:18.481Z,3.63
2022-09-25T19:26:45.212Z,3.97
2022-09-25T19:29:11.846Z,3.90
2022-09-25T19:31:38.632Z,3.53
2022-09-25T19:34:05.457Z,3.63
2022-09-25T19:36:34.816Z,4.13
2022-09-25T19:39:02.167Z,3.90
2022-09-25T19:41:34.269Z,4.47
2022-09-25T19:44:12.188Z,4.43
2022-09-25T19:46:41.553Z,4.20
2022-09-25T19:49:08.568Z,4.38
2022-09-25T19:51:35.512Z,4.15
2022-09-25T19:54:02.207Z,3.55
2022-09-25T19:56:29.268Z,4.78
2022-09-25T19:58:57.005Z,4.20
2022-09-25T20:01:27.621Z,4.15
2022-09-25T20:03:58.024Z,4.05
2022-09-25T20:06:26.297Z,4.00
2022-09-25T20:09:02.972Z,4.70
2022-09-25T20:11:31.426Z,4.90
2022-09-25T20:13:59.190Z,3.83
2022-09-25T20:16:29.217Z,4.57
2022-09-25T20:18:58.617Z,4.70
2022-09-25T20:21:26.617Z,4.30
2022-09-25T20:23:55.964Z,4.40
2022-09-25T20:26:26.331Z,3.97
2022-09-25T20:29:05.573Z,4.68
2022-09-25T20:31:32.871Z,4.40
2022-09-25T20:33:59.541Z,4.63
2022-09-25T20:36:26.739Z,4.68
2022-09-25T20:38:55.316Z,4.57
2022-09-25T20:41:23.641Z,4.90
2022-09-25T20:43:56.977Z,4.53
2022-09-25T20:46:25.361Z,4.53
2022-09-25T20:48:53.553Z,4.10
2022-09-25T20:51:27.435Z,4.40
2022-09-25T20:53:59.650Z,5.00
2022-09-25T20:56:28.153Z,4.55
2022-09-25T20:58:56.541Z,4.40
2022-09-25T21:01:26.284Z,4.00
2022-09-25T21:03:53.766Z,4.20
2022-09-25T21:06:26.938Z,4.00
2022-09-25T21:08:56.244Z,4.82
2022-09-25T21:11:23.979Z,5.10
2022-09-25T21:13:52.693Z,4.65
2022-09-25T21:16:21.242Z,4.70
2022-09-25T21:19:06.166Z,4.95
2022-09-25T21:21:33.884Z,5.13
2022-09-25T21:24:02.550Z,4.15
2022-09-25T21:26:31.513Z,4.30
2022-09-25T21:29:00.319Z,4.50
2022-09-25T21:31:30.721Z,5.38
2022-09-25T21:33:58.927Z,5.53
2022-09-25T21:36:27.440Z,5.32
2022-09-25T21:38:54.592Z,4.72
2022-09-25T21:41:24.154Z,4.47
2022-09-25T21:43:59.482Z,4.70
2022-09-25T21:46:27.344Z,4.20
2022-09-25T21:48:59.364Z,4.53
2022-09-25T21:51:32.060Z,4.38
2022-09-25T21:54:01.151Z,5.32
2022-09-25T21:56:31.597Z,5.50
2022-09-25T21:59:04.272Z,5.35
2022-09-25T22:01:35.677Z,5.65
2022-09-25T22:04:04.455Z,5.35
2022-09-25T22:06:44.591Z,5.80
2022-09-25T22:09:14.821Z,5.50
2022-09-25T22:11:42.604Z,5.38
2022-09-25T22:14:15.540Z,5.43
2022-09-25T22:16:44.166Z,4.82
2022-09-25T22:19:15.384Z,4.82
2022-09-25T22:21:43.551Z,5.28
2022-09-25T22:24:11.110Z,5.97
2022-09-25T22:26:40.089Z,5.28
2022-09-25T22:29:07.149Z,5.47
2022-09-25T22:31:35.080Z,4.72
2022-09-25T22:34:04.881Z,5.13
2022-09-25T22:36:32.113Z,4.40
2022-09-25T22:38:58.711Z,4.93
2022-09-25T22:41:25.476Z,5.22
2022-09-25T22:43:53.794Z,5.00
2022-09-25T22:46:22.253Z,5.75
2022-09-25T22:48:50.450Z,5.50
2022-09-25T22:51:21.930Z,4.95
2022-09-25T22:53:49.076Z,4.88
2022-09-25T22:56:24.566Z,5.00
2022-09-25T22:58:58.264Z,5.00
2022-09-25T23:01:31.664Z,4.75
2022-09-25T23:04:01.318Z,5.20
2022-09-25T23:06:29.999Z,5.18
2022-09-25T23:08:59.723Z,5.10
2022-09-25T23:11:27.504Z,5.15
2022-09-25T23:14:09.100Z,5.20
2022-09-25T23:16:36.009Z,4.43
2022-09-25T23:19:03.124Z,5.20
2022-09-25T23:21:30.890Z,5.50
2022-09-25T23:24:05.584Z,5.15
2022-09-25T23:26:32.369Z,4.85
2022-09-25T23:28:59.986Z,4.80
2022-09-25T23:31:26.654Z,4.55
2022-09-25T23:33:53.378Z,4.75
2022-09-25T23:36:22.924Z,5.07
2022-09-25T23:38:51.376Z,4.65
2022-09-25T23:41:31.451Z,4.50
2022-09-25T23:43:59.601Z,5.30
2022-09-25T23:46:28.643Z,5.03
2022-09-25T23:48:56.777Z,3.95
2022-09-25T23:51:23.906Z,4.43
2022-09-25T23:53:50.718Z,4.70
2022-09-25T23:56:22.415Z,4.50
2022-09-25T23:58:49.893Z,4.53
